GMMZ

Ouarzazate Airport

Ouarzazate, Morocco
METAR GMMZ 220300Z 27005KT CAVOK 20/12 Q1023 NOSIG
Observed Flight Rules
Sep-22 @ 03:00 UTC (26 minutes ago) Visual Flight Rules
Wind Visibility Clouds
270° at 5 knots 10,000+ meters
Temperatures Readings
Current 20°C / 68°F
Dewpoint 12°C / 54°F
Humidity 60%
Altimeter 30.21" Hg
Pressure 1023 hPa
Elevation 1140
METAR GMMZ 220300Z 27005KT CAVOK 20/12 Q1023 NOSIG
Observed Flight Rules
Sep-22 @ 03:00 UTC
(26 minutes ago)
VFR
Wind Visibility
270° at 5 knots 10,000+ meters
Clouds
Temperature Dewpoint
20°C / 68°F 12°C / 54°F
Humidity Altimeter Pressure
60% 30.21" Hg 1023 hPa